Terminal Aerodrome Forecast
Issued by NWS Sioux Falls, SD

Home | Current Version | Previous Version | Graphics & Text | Print | Product List | Glossary On
Versions: 1 2 3 4 5 6 7 8 9 10 11 12 13 14 15 16 17 18 19 20 21 22 23
000
FTUS43 KFSD 291638 AAA
TAFFSD
TAF AMD
KFSD 291638Z 2917/3012 07008KT P6SM OVC008
      TEMPO 2917/2919 -DZ
     FM291900 08010KT P6SM OVC012
     FM300100 09011KT P6SM OVC015
     FM300700 10011G16KT P6SM OVC010=

USA.gov is the U.S. government's official web portal to all federal, state and local government web resources and services.